createdAt,value
2023-04-28T00:01:39.532Z,39.33
2023-04-28T00:03:21.061Z,39.26
2023-04-28T00:05:02.573Z,39.56
2023-04-28T00:06:43.949Z,39.39
2023-04-28T00:08:25.277Z,39.72
2023-04-28T00:10:06.555Z,40.15
2023-04-28T00:11:47.848Z,39.71
2023-04-28T00:13:29.140Z,39.73
2023-04-28T00:15:10.469Z,38.42
2023-04-28T00:16:51.813Z,37.99
2023-04-28T00:18:33.203Z,38.80
2023-04-28T00:20:14.515Z,38.93
2023-04-28T00:21:55.804Z,38.77
2023-04-28T00:23:37.117Z,38.73
2023-04-28T00:25:18.422Z,39.19
2023-04-28T00:26:59.767Z,38.19
2023-04-28T00:28:41.082Z,37.52
2023-04-28T00:30:22.362Z,37.52
2023-04-28T00:32:03.725Z,38.00
2023-04-28T00:33:45.103Z,40.27
2023-04-28T00:35:26.407Z,39.75
2023-04-28T00:37:07.723Z,40.63
2023-04-28T00:38:49.016Z,38.39
2023-04-28T00:40:30.295Z,36.88
2023-04-28T00:42:11.582Z,35.94
2023-04-28T00:43:52.896Z,35.42
2023-04-28T00:45:34.329Z,36.16
2023-04-28T00:47:15.641Z,36.18
2023-04-28T00:48:56.937Z,36.27
2023-04-28T00:50:38.381Z,36.45
2023-04-28T00:52:19.654Z,36.67
2023-04-28T00:54:00.951Z,37.24
2023-04-28T00:55:42.206Z,37.34
2023-04-28T00:57:23.498Z,36.47
2023-04-28T00:59:04.821Z,36.91
2023-04-28T01:00:46.104Z,37.30
2023-04-28T01:02:27.565Z,37.89
2023-04-28T01:04:09.211Z,37.39
2023-04-28T01:05:52.064Z,35.68
2023-04-28T01:07:33.401Z,37.36
2023-04-28T01:09:14.737Z,37.54
2023-04-28T01:10:56.059Z,39.14
2023-04-28T01:12:37.407Z,39.74
2023-04-28T01:14:18.786Z,39.55
2023-04-28T01:16:00.158Z,37.75
2023-04-28T01:17:41.510Z,36.75
2023-04-28T01:19:22.807Z,39.62
2023-04-28T01:21:04.094Z,38.65
2023-04-28T01:22:45.381Z,39.79
2023-04-28T01:24:26.673Z,39.78
2023-04-28T01:26:07.992Z,39.47
2023-04-28T01:27:49.322Z,37.85
2023-04-28T01:29:30.678Z,37.37
2023-04-28T01:31:12.061Z,39.68
2023-04-28T01:32:53.441Z,39.98
2023-04-28T01:34:34.866Z,40.67
2023-04-28T01:36:16.159Z,39.91
2023-04-28T01:37:57.498Z,39.39
2023-04-28T01:39:38.809Z,37.80
2023-04-28T01:41:20.076Z,37.51
2023-04-28T01:43:01.394Z,37.52
2023-04-28T01:44:42.676Z,37.79
2023-04-28T01:46:24.021Z,39.07
2023-04-28T01:48:05.437Z,38.89
2023-04-28T01:49:46.814Z,38.47
2023-04-28T01:51:28.111Z,38.84
2023-04-28T01:53:09.415Z,38.40
2023-04-28T01:54:50.713Z,37.80
2023-04-28T01:56:32.015Z,37.74
2023-04-28T01:58:13.293Z,38.01
2023-04-28T01:59:54.588Z,38.30
2023-04-28T02:01:35.902Z,40.01
2023-04-28T02:03:17.287Z,39.00
2023-04-28T02:04:58.730Z,38.86
2023-04-28T02:06:40.073Z,38.51
2023-04-28T02:08:21.357Z,38.71
2023-04-28T02:10:02.678Z,39.39
2023-04-28T02:11:43.974Z,38.72
2023-04-28T02:13:25.283Z,38.11
2023-04-28T02:15:06.569Z,37.84
2023-04-28T02:16:47.846Z,41.16
2023-04-28T02:18:29.144Z,42.14
2023-04-28T02:20:10.414Z,42.53
2023-04-28T02:21:51.680Z,41.91
2023-04-28T02:23:32.966Z,40.94
2023-04-28T02:25:14.249Z,40.21
2023-04-28T02:26:55.517Z,39.81
2023-04-28T02:28:36.833Z,39.76
2023-04-28T02:30:18.113Z,38.75
2023-04-28T02:31:59.444Z,39.09
2023-04-28T02:33:40.791Z,40.66
2023-04-28T02:35:22.082Z,40.48
2023-04-28T02:37:03.348Z,41.41
2023-04-28T02:38:44.656Z,40.97
2023-04-28T02:40:25.985Z,40.51
2023-04-28T02:42:07.316Z,39.60
2023-04-28T02:43:48.606Z,41.55
2023-04-28T02:45:29.910Z,40.63
2023-04-28T02:47:11.198Z,42.05
2023-04-28T02:48:52.538Z,41.28
2023-04-28T02:50:33.929Z,39.42
2023-04-28T02:52:15.208Z,39.03
2023-04-28T02:53:56.497Z,38.69
2023-04-28T02:55:37.824Z,40.45
2023-04-28T02:57:19.086Z,39.98
2023-04-28T02:59:00.360Z,39.80
2023-04-28T03:00:41.682Z,39.76
2023-04-28T03:02:23.089Z,40.61
2023-04-28T03:04:04.731Z,40.32
2023-04-28T03:05:46.274Z,40.02
2023-04-28T03:07:27.553Z,40.60
2023-04-28T03:09:08.820Z,41.93
2023-04-28T03:10:50.141Z,42.38
2023-04-28T03:12:31.463Z,42.71
2023-04-28T03:14:12.754Z,42.34
2023-04-28T03:15:54.108Z,41.88
2023-04-28T03:17:35.484Z,40.79
2023-04-28T03:19:16.762Z,40.34
2023-04-28T03:20:58.060Z,40.72
2023-04-28T03:22:39.389Z,40.27
2023-04-28T03:24:20.686Z,40.10
2023-04-28T03:26:01.960Z,38.90
2023-04-28T03:27:43.245Z,39.14
2023-04-28T03:29:24.528Z,39.39
2023-04-28T03:31:05.861Z,38.91
2023-04-28T03:32:47.207Z,39.02
2023-04-28T03:34:28.527Z,38.95
2023-04-28T03:36:09.839Z,39.93
2023-04-28T03:37:51.116Z,41.68
2023-04-28T03:39:32.460Z,40.51
2023-04-28T03:41:13.789Z,39.78
2023-04-28T03:42:55.064Z,39.75
2023-04-28T03:44:36.363Z,39.81
2023-04-28T03:46:17.713Z,40.05
2023-04-28T03:47:59.097Z,39.89
2023-04-28T03:49:40.701Z,39.79
2023-04-28T03:51:22.019Z,39.77
2023-04-28T03:53:03.305Z,40.25
2023-04-28T03:54:44.630Z,41.30
2023-04-28T03:56:25.947Z,43.04
2023-04-28T03:58:07.247Z,42.45
2023-04-28T03:59:48.564Z,42.09
2023-04-28T04:01:29.863Z,40.79
2023-04-28T04:03:11.337Z,40.03
2023-04-28T04:04:52.974Z,41.34
2023-04-28T04:06:34.484Z,40.90
2023-04-28T04:08:15.772Z,39.87
2023-04-28T04:09:57.042Z,40.53
2023-04-28T04:11:38.329Z,43.87
2023-04-28T04:13:19.591Z,42.01
2023-04-28T04:15:00.904Z,42.26
2023-04-28T04:16:42.389Z,42.43
2023-04-28T04:18:23.664Z,42.15
2023-04-28T04:20:04.982Z,42.30
2023-04-28T04:21:46.306Z,42.61
2023-04-28T04:23:27.613Z,42.38
2023-04-28T04:25:08.941Z,41.98
2023-04-28T04:26:50.238Z,41.15
2023-04-28T04:28:31.571Z,40.54
2023-04-28T04:30:12.854Z,41.58
2023-04-28T04:31:54.124Z,42.45
2023-04-28T04:33:35.517Z,42.68
2023-04-28T04:35:16.802Z,43.24
2023-04-28T04:36:58.082Z,43.30
2023-04-28T04:38:39.403Z,43.30
2023-04-28T04:40:20.788Z,43.01
2023-04-28T04:42:10.461Z,43.94
2023-04-28T04:43:58.453Z,44.24
2023-04-28T04:45:39.736Z,44.34
2023-04-28T04:47:21.038Z,43.74
2023-04-28T04:49:02.361Z,43.09
2023-04-28T04:50:43.653Z,42.00
2023-04-28T04:52:24.944Z,41.32
2023-04-28T04:54:06.281Z,41.22
2023-04-28T04:55:47.568Z,42.94
2023-04-28T04:57:28.848Z,43.00
2023-04-28T04:59:10.107Z,42.16
2023-04-28T05:00:51.395Z,40.75
2023-04-28T05:02:32.781Z,41.27
2023-04-28T05:04:14.463Z,42.59
2023-04-28T05:05:56.022Z,43.57
2023-04-28T05:07:37.302Z,43.03
2023-04-28T05:09:18.605Z,43.28
2023-04-28T05:10:59.884Z,43.57
2023-04-28T05:12:41.172Z,43.81
2023-04-28T05:14:22.477Z,44.13
2023-04-28T05:16:03.785Z,43.63
2023-04-28T05:17:45.125Z,43.01
2023-04-28T05:19:26.448Z,42.96
2023-04-28T05:21:07.721Z,43.26
2023-04-28T05:22:49.044Z,43.58
2023-04-28T05:24:30.351Z,44.70
2023-04-28T05:26:11.648Z,45.37
2023-04-28T05:27:52.949Z,44.05
2023-04-28T05:29:34.298Z,44.29
2023-04-28T05:31:15.616Z,44.73
2023-04-28T05:32:56.922Z,43.31
2023-04-28T05:34:38.235Z,43.23
2023-04-28T05:36:19.510Z,42.66
2023-04-28T05:38:00.795Z,41.99
2023-04-28T05:39:42.172Z,41.57
2023-04-28T05:41:23.446Z,41.69
2023-04-28T05:43:04.747Z,42.14
2023-04-28T05:44:46.077Z,41.58
2023-04-28T05:46:30.818Z,42.05
2023-04-28T05:48:12.602Z,42.62
2023-04-28T05:49:53.911Z,42.28
2023-04-28T05:51:35.259Z,41.59
2023-04-28T05:53:16.664Z,41.00
2023-04-28T05:54:57.945Z,40.74
2023-04-28T05:56:39.314Z,40.44
2023-04-28T05:58:20.630Z,41.96
2023-04-28T06:00:01.925Z,43.65
2023-04-28T06:01:43.283Z,43.41
2023-04-28T06:03:24.785Z,43.11
2023-04-28T06:05:06.421Z,42.27
2023-04-28T06:06:47.852Z,41.68
2023-04-28T06:08:29.161Z,42.44
2023-04-28T06:10:10.419Z,43.23
2023-04-28T06:11:51.806Z,43.92
2023-04-28T06:13:33.122Z,44.77
2023-04-28T06:15:14.427Z,43.87
2023-04-28T06:16:56.896Z,42.28
2023-04-28T06:18:38.244Z,41.12
2023-04-28T06:20:19.544Z,41.40
2023-04-28T06:22:00.819Z,41.28
2023-04-28T06:23:42.102Z,42.13
2023-04-28T06:25:23.392Z,42.56
2023-04-28T06:27:04.709Z,40.49
2023-04-28T06:28:46.029Z,39.66
2023-04-28T06:30:27.316Z,39.71
2023-04-28T06:32:08.614Z,39.84
2023-04-28T06:33:49.918Z,39.42
2023-04-28T06:35:31.256Z,38.52
2023-04-28T06:37:12.525Z,38.06
2023-04-28T06:38:53.827Z,39.49
2023-04-28T06:40:35.144Z,39.71
2023-04-28T06:42:16.464Z,38.32
2023-04-28T06:43:57.769Z,37.04
2023-04-28T06:45:39.091Z,36.73
2023-04-28T06:47:20.389Z,37.57
2023-04-28T06:49:01.657Z,38.36
2023-04-28T06:50:43.950Z,38.18
2023-04-28T06:52:33.467Z,39.19
2023-04-28T06:54:20.177Z,38.90
2023-04-28T06:56:01.571Z,39.34
2023-04-28T06:57:42.862Z,41.98
2023-04-28T06:59:24.141Z,41.85
2023-04-28T07:01:05.491Z,41.92
2023-04-28T07:02:46.865Z,41.30
2023-04-28T07:04:28.248Z,40.97
2023-04-28T07:06:09.567Z,41.57
2023-04-28T07:07:50.889Z,41.59
2023-04-28T07:09:32.157Z,41.12
2023-04-28T07:11:13.439Z,40.86
2023-04-28T07:12:54.780Z,40.17
2023-04-28T07:14:36.095Z,40.55
2023-04-28T07:16:17.496Z,40.60
2023-04-28T07:17:58.912Z,38.62
2023-04-28T07:19:40.242Z,38.50
2023-04-28T07:21:21.546Z,37.96
2023-04-28T07:23:02.823Z,37.99
2023-04-28T07:24:44.085Z,38.24
2023-04-28T07:26:25.632Z,37.59
2023-04-28T07:28:06.947Z,37.60
2023-04-28T07:29:48.301Z,37.88
2023-04-28T07:31:29.635Z,37.43
2023-04-28T07:33:11.025Z,36.84
2023-04-28T07:34:52.367Z,36.21
2023-04-28T07:36:33.664Z,36.89
2023-04-28T07:38:15.009Z,37.37
2023-04-28T07:39:56.308Z,36.80
2023-04-28T07:41:37.597Z,36.46
2023-04-28T07:43:18.871Z,36.47
2023-04-28T07:45:00.183Z,36.26
2023-04-28T07:46:41.495Z,37.03
2023-04-28T07:48:22.834Z,36.52
2023-04-28T07:50:04.161Z,36.64
2023-04-28T07:51:45.461Z,37.58
2023-04-28T07:53:26.751Z,37.62
2023-04-28T07:55:08.046Z,37.07
2023-04-28T07:56:49.376Z,36.27
2023-04-28T07:58:30.712Z,37.16
2023-04-28T08:00:12.172Z,37.96
2023-04-28T08:01:53.584Z,37.41
2023-04-28T08:03:35.246Z,37.75
2023-04-28T08:05:16.905Z,36.81
2023-04-28T08:06:58.350Z,35.92
2023-04-28T08:08:39.642Z,37.63
2023-04-28T08:10:21.072Z,37.12
2023-04-28T08:12:02.451Z,35.68
2023-04-28T08:13:43.767Z,36.16
2023-04-28T08:15:25.121Z,37.38
2023-04-28T08:17:06.394Z,36.61
2023-04-28T08:18:47.750Z,35.85
2023-04-28T08:20:29.157Z,35.59
2023-04-28T08:22:10.454Z,37.20
2023-04-28T08:23:51.726Z,36.77
2023-04-28T08:25:33.023Z,35.87
2023-04-28T08:27:14.345Z,35.45
2023-04-28T08:28:55.607Z,35.78
2023-04-28T08:30:36.914Z,35.99
2023-04-28T08:32:18.279Z,35.53
2023-04-28T08:33:59.611Z,36.39
2023-04-28T08:35:40.890Z,36.00
2023-04-28T08:37:24.172Z,36.62
2023-04-28T08:39:05.443Z,35.85
2023-04-28T08:40:46.760Z,36.46
2023-04-28T08:42:28.022Z,36.54
2023-04-28T08:44:09.342Z,36.43
2023-04-28T08:45:50.896Z,36.33
2023-04-28T08:47:32.429Z,35.54
2023-04-28T08:49:13.723Z,35.67
2023-04-28T08:50:55.159Z,35.71
2023-04-28T08:52:36.533Z,35.30
2023-04-28T08:54:26.196Z,35.61
2023-04-28T08:56:08.118Z,35.30
2023-04-28T08:57:49.401Z,35.19
2023-04-28T08:59:30.702Z,35.09
2023-04-28T09:01:12.050Z,35.27
2023-04-28T09:02:53.505Z,35.21
2023-04-28T09:04:35.052Z,35.95
2023-04-28T09:06:16.501Z,35.72
2023-04-28T09:07:57.818Z,35.58
2023-04-28T09:09:39.383Z,35.61
2023-04-28T09:11:20.899Z,36.49
2023-04-28T09:13:02.162Z,36.20
2023-04-28T09:14:43.460Z,36.77
2023-04-28T09:16:24.769Z,36.56
2023-04-28T09:18:06.164Z,36.92
2023-04-28T09:19:47.542Z,35.99
2023-04-28T09:21:28.848Z,35.21
2023-04-28T09:23:10.120Z,34.64
2023-04-28T09:24:51.435Z,34.87
2023-04-28T09:26:32.801Z,36.23
2023-04-28T09:28:14.089Z,34.51
2023-04-28T09:29:55.378Z,34.13
2023-04-28T09:31:36.742Z,34.70
2023-04-28T09:33:18.110Z,35.06
2023-04-28T09:34:59.453Z,35.49
2023-04-28T09:36:40.815Z,35.55
2023-04-28T09:38:22.084Z,35.83
2023-04-28T09:40:03.377Z,34.34
2023-04-28T09:41:44.686Z,34.94
2023-04-28T09:43:26.029Z,34.94
2023-04-28T09:45:07.343Z,35.01
2023-04-28T09:46:48.678Z,34.46
2023-04-28T09:48:30.012Z,34.60
2023-04-28T09:50:11.379Z,34.87
2023-04-28T09:51:52.700Z,34.43
2023-04-28T09:53:34.011Z,34.51
2023-04-28T09:55:15.299Z,34.16
2023-04-28T09:56:56.625Z,34.53
2023-04-28T09:58:37.936Z,35.09
2023-04-28T10:00:19.252Z,35.26
2023-04-28T10:02:04.677Z,34.29
2023-04-28T10:03:52.526Z,34.81
2023-04-28T10:05:33.979Z,34.89
2023-04-28T10:07:15.404Z,34.77
2023-04-28T10:08:56.704Z,34.70
2023-04-28T10:10:38.040Z,34.79
2023-04-28T10:12:19.349Z,34.10
2023-04-28T10:14:00.666Z,35.16
2023-04-28T10:15:41.995Z,33.88
2023-04-28T10:17:23.341Z,34.18
2023-04-28T10:19:04.655Z,34.01
2023-04-28T10:20:45.952Z,35.20
2023-04-28T10:22:27.230Z,33.85
2023-04-28T10:24:08.590Z,32.95
2023-04-28T10:25:49.877Z,32.42
2023-04-28T10:27:31.149Z,31.56
2023-04-28T10:29:12.491Z,31.34
2023-04-28T10:30:53.897Z,32.14
2023-04-28T10:32:35.899Z,31.48
2023-04-28T10:34:17.529Z,32.85
2023-04-28T10:35:58.861Z,32.91
2023-04-28T10:37:40.140Z,34.30
2023-04-28T10:39:21.686Z,33.60
2023-04-28T10:41:03.305Z,34.43
2023-04-28T10:42:44.596Z,35.37
2023-04-28T10:44:26.108Z,35.90
2023-04-28T10:46:07.649Z,34.93
2023-04-28T10:47:49.176Z,35.13
2023-04-28T10:49:30.573Z,35.96
2023-04-28T10:51:11.886Z,34.65
2023-04-28T10:52:53.192Z,34.55
2023-04-28T10:54:34.521Z,34.91
2023-04-28T10:56:15.801Z,33.65
2023-04-28T10:57:57.102Z,34.45
2023-04-28T10:59:38.391Z,34.79
2023-04-28T11:01:19.790Z,33.80
2023-04-28T11:03:01.282Z,35.08
2023-04-28T11:04:42.760Z,34.82
2023-04-28T11:06:24.302Z,35.50
2023-04-28T11:08:05.611Z,35.64
2023-04-28T11:09:46.898Z,35.59
2023-04-28T11:11:28.211Z,35.66
2023-04-28T11:13:09.497Z,35.64
2023-04-28T11:14:50.785Z,36.11
2023-04-28T11:16:32.737Z,35.49
2023-04-28T11:18:14.316Z,36.06
2023-04-28T11:19:55.792Z,35.89
2023-04-28T11:21:37.287Z,36.09
2023-04-28T11:23:18.583Z,37.05
2023-04-28T11:24:59.922Z,37.64
2023-04-28T11:26:41.522Z,37.98
2023-04-28T11:28:23.104Z,37.34
2023-04-28T11:30:04.428Z,38.66
2023-04-28T11:31:45.771Z,38.37
2023-04-28T11:33:27.132Z,37.87
2023-04-28T11:35:08.399Z,37.58
2023-04-28T11:36:49.712Z,38.50
2023-04-28T11:38:31.016Z,36.81
2023-04-28T11:40:12.275Z,36.56
2023-04-28T11:41:53.527Z,36.55
2023-04-28T11:43:46.568Z,35.16
2023-04-28T11:45:28.833Z,35.33
2023-04-28T11:47:10.256Z,36.40
2023-04-28T11:48:51.576Z,36.21
2023-04-28T11:50:32.844Z,36.85
2023-04-28T11:52:14.143Z,37.26
2023-04-28T11:53:55.513Z,37.40
2023-04-28T11:55:38.263Z,38.50
2023-04-28T11:57:20.113Z,38.60
2023-04-28T11:59:01.877Z,37.50
2023-04-28T12:00:45.018Z,37.46
2023-04-28T12:02:26.485Z,37.92
2023-04-28T12:04:07.958Z,37.46
2023-04-28T12:05:49.311Z,37.44
2023-04-28T12:07:30.598Z,36.73
2023-04-28T12:09:11.916Z,35.73
2023-04-28T12:10:53.204Z,34.68
2023-04-28T12:12:48.962Z,35.64
2023-04-28T12:14:32.862Z,36.23
2023-04-28T12:16:14.210Z,36.98
2023-04-28T12:17:55.593Z,35.24
2023-04-28T12:19:36.965Z,35.05
2023-04-28T12:21:18.232Z,35.80
2023-04-28T12:22:59.566Z,35.75
2023-04-28T12:24:40.880Z,36.27
2023-04-28T12:26:22.288Z,36.60
2023-04-28T12:28:03.591Z,37.03
2023-04-28T12:29:45.128Z,37.46
2023-04-28T12:31:26.707Z,36.74
2023-04-28T12:33:08.065Z,36.83
2023-04-28T12:34:50.056Z,35.58
2023-04-28T12:36:31.618Z,35.73
2023-04-28T12:38:12.936Z,35.80
2023-04-28T12:39:54.253Z,34.78
2023-04-28T12:41:35.545Z,34.91
2023-04-28T12:43:16.865Z,35.33
2023-04-28T12:44:58.189Z,35.03
2023-04-28T12:46:39.476Z,35.90
2023-04-28T12:48:20.830Z,36.89
2023-04-28T12:50:02.144Z,36.40
2023-04-28T12:51:43.434Z,36.70
2023-04-28T12:53:24.772Z,36.30
2023-04-28T12:55:06.093Z,36.76
2023-04-28T12:56:47.396Z,36.86
2023-04-28T12:58:28.693Z,36.85
2023-04-28T13:00:09.965Z,35.38
2023-04-28T13:01:51.326Z,36.45
2023-04-28T13:03:32.783Z,35.99
2023-04-28T13:05:14.190Z,35.59
2023-04-28T13:06:55.454Z,35.42
2023-04-28T13:08:36.876Z,35.71
2023-04-28T13:10:18.180Z,34.36
2023-04-28T13:12:00.164Z,34.93
2023-04-28T13:13:41.781Z,35.93
2023-04-28T13:15:23.076Z,35.30
2023-04-28T13:17:04.339Z,35.21
2023-04-28T13:18:45.666Z,35.16
2023-04-28T13:20:26.958Z,35.84
2023-04-28T13:22:08.254Z,36.90
2023-04-28T13:23:49.561Z,36.95
2023-04-28T13:25:30.840Z,36.63
2023-04-28T13:27:12.227Z,36.43
2023-04-28T13:28:53.511Z,36.84
2023-04-28T13:30:34.792Z,37.02
2023-04-28T13:32:16.113Z,36.78
2023-04-28T13:33:57.492Z,37.12
2023-04-28T13:35:38.805Z,37.28
2023-04-28T13:37:20.149Z,37.41
2023-04-28T13:39:02.511Z,37.68
2023-04-28T13:40:44.073Z,36.05
2023-04-28T13:42:25.490Z,36.41
2023-04-28T13:44:06.853Z,36.01
2023-04-28T13:45:48.163Z,37.47
2023-04-28T13:47:29.528Z,36.18
2023-04-28T13:49:10.930Z,36.02
2023-04-28T13:50:52.868Z,36.44
2023-04-28T13:52:34.464Z,37.17
2023-04-28T13:54:15.821Z,37.76
2023-04-28T13:55:57.304Z,36.92
2023-04-28T13:57:38.802Z,36.95
2023-04-28T13:59:20.112Z,38.06
2023-04-28T14:01:01.407Z,38.01
2023-04-28T14:02:42.846Z,38.13
2023-04-28T14:04:24.406Z,38.01
2023-04-28T14:06:05.806Z,37.23
2023-04-28T14:07:47.115Z,37.49
2023-04-28T14:09:28.467Z,37.28
2023-04-28T14:11:09.747Z,37.21
2023-04-28T14:12:51.007Z,37.74
2023-04-28T14:14:32.299Z,38.56
2023-04-28T14:16:13.756Z,39.19
2023-04-28T14:17:55.167Z,38.67
2023-04-28T14:19:36.494Z,38.57
2023-04-28T14:21:17.825Z,38.32
2023-04-28T14:22:59.102Z,38.28
2023-04-28T14:24:40.371Z,38.59
2023-04-28T14:26:21.685Z,38.84
2023-04-28T14:28:03.128Z,37.61
2023-04-28T14:29:44.435Z,37.15
2023-04-28T14:31:25.759Z,36.25
2023-04-28T14:33:07.230Z,36.54
2023-04-28T14:34:49.392Z,35.92
2023-04-28T14:36:30.993Z,34.45
2023-04-28T14:38:12.288Z,34.34
2023-04-28T14:39:53.581Z,34.63
2023-04-28T14:41:34.892Z,34.69
2023-04-28T14:43:16.327Z,35.40
2023-04-28T14:44:57.622Z,34.81
2023-04-28T14:46:38.963Z,35.63
2023-04-28T14:48:20.364Z,35.02
2023-04-28T14:50:01.675Z,33.96
2023-04-28T14:51:43.054Z,34.54
2023-04-28T14:53:24.348Z,33.32
2023-04-28T14:55:05.663Z,34.22
2023-04-28T14:56:47.005Z,34.59
2023-04-28T14:58:28.280Z,35.46
2023-04-28T15:00:09.593Z,35.34
2023-04-28T15:01:51.035Z,34.07
2023-04-28T15:03:32.496Z,31.97
2023-04-28T15:05:14.033Z,29.74
2023-04-28T15:06:55.344Z,30.76
2023-04-28T15:08:36.639Z,32.41
2023-04-28T15:10:17.963Z,34.51
2023-04-28T15:11:59.251Z,34.24
2023-04-28T15:13:42.912Z,35.41
2023-04-28T15:15:25.029Z,37.26
2023-04-28T15:17:06.562Z,36.67
2023-04-28T15:18:47.932Z,33.59
2023-04-28T15:20:29.697Z,33.48
2023-04-28T15:22:11.075Z,34.91
2023-04-28T15:23:52.410Z,33.27
2023-04-28T15:25:33.735Z,33.16
2023-04-28T15:27:15.079Z,31.31
2023-04-28T15:28:56.985Z,30.60
2023-04-28T15:30:39.440Z,31.78
2023-04-28T15:32:20.734Z,31.76
2023-04-28T15:34:02.002Z,32.29
2023-04-28T15:35:43.313Z,32.35
2023-04-28T15:37:25.345Z,33.66
2023-04-28T15:39:06.868Z,34.72
2023-04-28T15:40:48.209Z,34.34
2023-04-28T15:42:29.524Z,34.57
2023-04-28T15:44:10.793Z,34.96
2023-04-28T15:45:52.104Z,36.48
2023-04-28T15:47:33.522Z,36.69
2023-04-28T15:49:14.850Z,36.78
2023-04-28T15:50:56.124Z,36.41
2023-04-28T15:52:38.661Z,36.85
2023-04-28T15:54:20.009Z,36.28
2023-04-28T15:56:01.313Z,35.71
2023-04-28T15:57:42.635Z,35.63
2023-04-28T15:59:23.909Z,33.64
2023-04-28T16:01:05.299Z,33.85
2023-04-28T16:02:46.760Z,34.50
2023-04-28T16:04:28.472Z,35.27
2023-04-28T16:06:09.827Z,34.89
2023-04-28T16:07:51.198Z,33.93
2023-04-28T16:09:32.511Z,34.49
2023-04-28T16:11:13.863Z,35.10
2023-04-28T16:12:55.179Z,36.02
2023-04-28T16:14:36.462Z,37.12
2023-04-28T16:16:18.046Z,38.57
2023-04-28T16:17:59.594Z,37.59
2023-04-28T16:19:41.233Z,37.91
2023-04-28T16:21:22.592Z,37.18
2023-04-28T16:23:03.890Z,36.48
2023-04-28T16:24:45.215Z,36.61
2023-04-28T16:26:26.479Z,36.66
2023-04-28T16:28:08.151Z,38.10
2023-04-28T16:29:49.864Z,38.56
2023-04-28T16:31:31.239Z,38.94
2023-04-28T16:33:12.596Z,38.86
2023-04-28T16:34:53.893Z,39.21
2023-04-28T16:36:35.200Z,38.46
2023-04-28T16:38:16.485Z,38.20
2023-04-28T16:39:57.917Z,37.91
2023-04-28T16:41:39.238Z,38.07
2023-04-28T16:43:20.565Z,37.45
2023-04-28T16:45:01.918Z,37.16
2023-04-28T16:46:43.201Z,36.89
2023-04-28T16:48:24.505Z,36.90
2023-04-28T16:50:05.847Z,37.02
2023-04-28T16:51:47.159Z,36.56
2023-04-28T16:53:28.765Z,35.04
2023-04-28T16:55:10.060Z,34.86
2023-04-28T16:56:51.341Z,34.11
2023-04-28T16:58:33.376Z,33.36
2023-04-28T17:00:14.908Z,35.26
2023-04-28T17:01:56.247Z,35.80
2023-04-28T17:03:37.832Z,36.35
2023-04-28T17:05:19.193Z,36.96
2023-04-28T17:07:00.466Z,36.82
2023-04-28T17:08:41.814Z,36.90
2023-04-28T17:10:23.186Z,35.95
2023-04-28T17:12:04.494Z,35.44
2023-04-28T17:13:45.759Z,34.97
2023-04-28T17:15:27.168Z,35.14
2023-04-28T17:17:09.061Z,34.82
2023-04-28T17:18:50.830Z,35.98
2023-04-28T17:20:32.248Z,36.80
2023-04-28T17:22:13.547Z,36.05
2023-04-28T17:23:54.914Z,36.10
2023-04-28T17:25:36.436Z,36.10
2023-04-28T17:27:17.803Z,35.71
2023-04-28T17:28:59.087Z,36.23
2023-04-28T17:30:42.098Z,36.14
2023-04-28T17:32:25.186Z,36.22
2023-04-28T17:34:06.534Z,36.34
2023-04-28T17:35:47.871Z,35.77
2023-04-28T17:37:29.255Z,36.04
2023-04-28T17:39:10.602Z,37.80
2023-04-28T17:40:52.004Z,37.41
2023-04-28T17:42:33.429Z,36.78
2023-04-28T17:44:14.851Z,36.09
2023-04-28T17:45:56.262Z,37.69
2023-04-28T17:47:37.661Z,37.53
2023-04-28T17:49:19.182Z,37.72
2023-04-28T17:51:00.597Z,37.54
2023-04-28T17:52:43.997Z,36.99
2023-04-28T17:54:25.795Z,37.25
2023-04-28T17:56:07.304Z,38.60
2023-04-28T17:57:48.828Z,39.29
2023-04-28T17:59:30.474Z,39.64
2023-04-28T18:01:11.854Z,40.14
2023-04-28T18:02:53.226Z,42.16
2023-04-28T18:04:34.646Z,41.72
2023-04-28T18:06:15.928Z,42.71
2023-04-28T18:07:57.225Z,43.09
2023-04-28T18:09:38.558Z,42.97
2023-04-28T18:11:20.517Z,43.20
2023-04-28T18:13:01.931Z,43.94
2023-04-28T18:14:43.295Z,42.87
2023-04-28T18:16:24.601Z,43.22
2023-04-28T18:18:05.911Z,43.20
2023-04-28T18:19:47.220Z,42.20
2023-04-28T18:21:28.547Z,42.63
2023-04-28T18:23:10.501Z,43.33
2023-04-28T18:24:52.350Z,43.97
2023-04-28T18:26:33.880Z,44.90
2023-04-28T18:28:15.172Z,44.05
2023-04-28T18:29:56.539Z,44.24
2023-04-28T18:31:38.122Z,46.81
2023-04-28T18:33:22.764Z,46.53
2023-04-28T18:35:04.874Z,45.52
2023-04-28T18:36:46.348Z,44.00
2023-04-28T18:38:28.013Z,44.27
2023-04-28T18:40:09.323Z,45.15
2023-04-28T18:41:50.763Z,44.03
2023-04-28T18:43:32.308Z,43.83
2023-04-28T18:45:13.659Z,43.42
2023-04-28T18:46:55.112Z,44.16
2023-04-28T18:48:36.529Z,43.58
2023-04-28T18:50:17.834Z,44.09
2023-04-28T18:51:59.305Z,43.33
2023-04-28T18:53:40.811Z,42.66
2023-04-28T18:55:22.086Z,41.94
2023-04-28T18:57:03.394Z,41.67
2023-04-28T18:58:44.943Z,42.08
2023-04-28T19:00:26.451Z,41.51
2023-04-28T19:02:07.720Z,42.42
2023-04-28T19:03:49.120Z,42.84
2023-04-28T19:05:30.532Z,43.44
2023-04-28T19:07:12.504Z,43.86
2023-04-28T19:08:53.968Z,44.52
2023-04-28T19:10:35.415Z,44.66
2023-04-28T19:12:16.893Z,45.06
2023-04-28T19:13:58.294Z,46.15
2023-04-28T19:15:39.602Z,45.87
2023-04-28T19:17:20.942Z,48.54
2023-04-28T19:19:02.236Z,47.59
2023-04-28T19:20:44.212Z,47.28
2023-04-28T19:22:25.785Z,47.86
2023-04-28T19:24:07.159Z,49.34
2023-04-28T19:25:48.740Z,48.82
2023-04-28T19:27:30.267Z,49.96
2023-04-28T19:29:11.568Z,49.56
2023-04-28T19:30:53.145Z,48.33
2023-04-28T19:32:34.739Z,49.67
2023-04-28T19:34:16.051Z,50.68
2023-04-28T19:35:57.612Z,52.68
2023-04-28T19:37:39.393Z,55.26
2023-04-28T19:39:20.892Z,56.61
2023-04-28T19:41:02.286Z,57.57
2023-04-28T19:42:43.877Z,58.31
2023-04-28T19:44:25.336Z,57.88
2023-04-28T19:46:06.669Z,57.93
2023-04-28T19:47:48.049Z,59.04
2023-04-28T19:49:29.366Z,59.33
2023-04-28T19:51:10.929Z,60.21
2023-04-28T19:52:52.651Z,59.64
2023-04-28T19:54:34.025Z,60.80
2023-04-28T19:56:15.505Z,60.77
2023-04-28T19:57:56.931Z,59.92
2023-04-28T19:59:38.261Z,60.27
2023-04-28T20:01:19.643Z,60.58
2023-04-28T20:03:01.397Z,62.35
2023-04-28T20:04:43.126Z,64.68
2023-04-28T20:06:24.905Z,64.20
2023-04-28T20:08:06.408Z,63.39
2023-04-28T20:09:47.803Z,62.47
2023-04-28T20:11:29.091Z,61.63
2023-04-28T20:13:10.349Z,60.38
2023-04-28T20:14:51.656Z,59.85
2023-04-28T20:16:32.959Z,59.72
2023-04-28T20:18:17.170Z,59.70
2023-04-28T20:19:58.446Z,58.85
2023-04-28T20:21:39.878Z,56.69
2023-04-28T20:23:21.182Z,56.48
2023-04-28T20:25:02.501Z,56.56
2023-04-28T20:26:43.816Z,60.38
2023-04-28T20:28:25.123Z,59.92
2023-04-28T20:30:06.450Z,58.98
2023-04-28T20:31:48.548Z,58.62
2023-04-28T20:33:30.319Z,56.75
2023-04-28T20:35:11.811Z,59.52
2023-04-28T20:36:53.308Z,60.56
2023-04-28T20:38:34.804Z,59.95
2023-04-28T20:40:16.482Z,59.81
2023-04-28T20:41:57.907Z,61.15
2023-04-28T20:43:39.201Z,63.49
2023-04-28T20:45:20.513Z,64.70
2023-04-28T20:47:02.706Z,65.04
2023-04-28T20:48:44.263Z,64.21
2023-04-28T20:50:25.834Z,62.26
2023-04-28T20:52:07.302Z,60.17
2023-04-28T20:53:48.876Z,59.63
2023-04-28T20:55:30.396Z,61.50
2023-04-28T20:57:11.685Z,66.05
2023-04-28T20:58:53.004Z,68.28
2023-04-28T21:00:34.363Z,67.14
2023-04-28T21:02:15.745Z,63.56
2023-04-28T21:03:57.187Z,61.49
2023-04-28T21:05:38.551Z,62.36
2023-04-28T21:07:20.439Z,64.79
2023-04-28T21:09:02.136Z,66.87
2023-04-28T21:10:43.456Z,66.92
2023-04-28T21:12:24.739Z,66.98
2023-04-28T21:14:06.340Z,67.52
2023-04-28T21:15:47.856Z,68.37
2023-04-28T21:17:29.376Z,69.30
2023-04-28T21:19:11.013Z,68.38
2023-04-28T21:20:52.326Z,67.81
2023-04-28T21:22:33.653Z,65.74
2023-04-28T21:24:14.932Z,64.08
2023-04-28T21:25:56.191Z,62.16
2023-04-28T21:27:37.816Z,62.03
2023-04-28T21:29:19.436Z,60.73
2023-04-28T21:31:00.712Z,62.29
2023-04-28T21:32:42.085Z,64.20
2023-04-28T21:34:23.773Z,65.18
2023-04-28T21:36:05.509Z,63.78
2023-04-28T21:37:46.966Z,63.11
2023-04-28T21:39:28.595Z,64.54
2023-04-28T21:41:10.042Z,63.44
2023-04-28T21:42:51.323Z,61.49
2023-04-28T21:44:32.626Z,61.89
2023-04-28T21:46:13.933Z,61.41
2023-04-28T21:47:55.308Z,61.49